sensor_id;sensor_type;location;lat;lon;timestamp;P1;durP1;ratioP1;P2;durP2;ratioP2
7049;SDS011;22263;52.260;10.548;2022-08-01T00:01:50;6.22;;;5.07;;
7049;SDS011;22263;52.260;10.548;2022-08-01T00:04:22;5.07;;;4.60;;
7049;SDS011;22263;52.260;10.548;2022-08-01T00:06:51;5.85;;;5.07;;
7049;SDS011;22263;52.260;10.548;2022-08-01T00:09:24;8.35;;;5.43;;
7049;SDS011;22263;52.260;10.548;2022-08-01T00:11:53;5.25;;;4.53;;
7049;SDS011;22263;52.260;10.548;2022-08-01T00:14:25;5.88;;;5.28;;
7049;SDS011;22263;52.260;10.548;2022-08-01T00:16:58;6.05;;;5.45;;
7049;SDS011;22263;52.260;10.548;2022-08-01T00:19:35;6.10;;;4.93;;
7049;SDS011;22263;52.260;10.548;2022-08-01T00:22:04;7.22;;;4.90;;
7049;SDS011;22263;52.260;10.548;2022-08-01T00:24:34;6.03;;;5.43;;
7049;SDS011;22263;52.260;10.548;2022-08-01T00:27:03;5.28;;;4.78;;
7049;SDS011;22263;52.260;10.548;2022-08-01T00:29:33;6.13;;;5.00;;
7049;SDS011;22263;52.260;10.548;2022-08-01T00:32:22;5.60;;;5.10;;
7049;SDS011;22263;52.260;10.548;2022-08-01T00:34:54;6.35;;;5.05;;
7049;SDS011;22263;52.260;10.548;2022-08-01T00:37:24;6.85;;;5.13;;
7049;SDS011;22263;52.260;10.548;2022-08-01T00:39:53;5.85;;;5.25;;
7049;SDS011;22263;52.260;10.548;2022-08-01T00:42:23;7.35;;;4.78;;
7049;SDS011;22263;52.260;10.548;2022-08-01T00:44:52;6.47;;;5.20;;
7049;SDS011;22263;52.260;10.548;2022-08-01T00:47:21;6.40;;;5.00;;
7049;SDS011;22263;52.260;10.548;2022-08-01T00:49:53;6.00;;;5.40;;
7049;SDS011;22263;52.260;10.548;2022-08-01T00:52:23;6.18;;;5.10;;
7049;SDS011;22263;52.260;10.548;2022-08-01T00:54:52;5.43;;;4.93;;
7049;SDS011;22263;52.260;10.548;2022-08-01T00:57:22;7.32;;;5.40;;
7049;SDS011;22263;52.260;10.548;2022-08-01T01:00:12;5.60;;;5.10;;
7049;SDS011;22263;52.260;10.548;2022-08-01T01:02:42;5.75;;;4.97;;
7049;SDS011;22263;52.260;10.548;2022-08-01T01:05:15;5.05;;;4.55;;
7049;SDS011;22263;52.260;10.548;2022-08-01T01:07:46;6.45;;;4.90;;
7049;SDS011;22263;52.260;10.548;2022-08-01T01:10:22;5.75;;;4.97;;
7049;SDS011;22263;52.260;10.548;2022-08-01T01:12:59;6.22;;;5.00;;
7049;SDS011;22263;52.260;10.548;2022-08-01T01:15:34;8.50;;;5.22;;
7049;SDS011;22263;52.260;10.548;2022-08-01T01:18:09;6.38;;;5.00;;
7049;SDS011;22263;52.260;10.548;2022-08-01T01:20:45;9.43;;;5.60;;
7049;SDS011;22263;52.260;10.548;2022-08-01T01:23:28;6.80;;;5.22;;
7049;SDS011;22263;52.260;10.548;2022-08-01T01:26:22;5.93;;;5.30;;
7049;SDS011;22263;52.260;10.548;2022-08-01T01:29:05;5.45;;;4.95;;
7049;SDS011;22263;52.260;10.548;2022-08-01T01:31:40;7.63;;;5.32;;
7049;SDS011;22263;52.260;10.548;2022-08-01T01:34:13;5.90;;;4.85;;
7049;SDS011;22263;52.260;10.548;2022-08-01T01:36:47;6.55;;;5.53;;
7049;SDS011;22263;52.260;10.548;2022-08-01T01:39:18;8.88;;;5.78;;
7049;SDS011;22263;52.260;10.548;2022-08-01T01:41:49;6.75;;;6.10;;
7049;SDS011;22263;52.260;10.548;2022-08-01T01:44:25;6.75;;;5.78;;
7049;SDS011;22263;52.260;10.548;2022-08-01T01:46:56;7.80;;;5.63;;
7049;SDS011;22263;52.260;10.548;2022-08-01T01:49:27;6.75;;;5.97;;
7049;SDS011;22263;52.260;10.548;2022-08-01T01:51:59;7.22;;;6.38;;
7049;SDS011;22263;52.260;10.548;2022-08-01T01:54:31;7.30;;;5.72;;
7049;SDS011;22263;52.260;10.548;2022-08-01T01:57:04;6.70;;;6.10;;
7049;SDS011;22263;52.260;10.548;2022-08-01T01:59:38;8.50;;;5.93;;
7049;SDS011;22263;52.260;10.548;2022-08-01T02:02:09;6.20;;;5.60;;
7049;SDS011;22263;52.260;10.548;2022-08-01T02:04:42;8.70;;;5.38;;
7049;SDS011;22263;52.260;10.548;2022-08-01T02:07:14;6.57;;;5.43;;
7049;SDS011;22263;52.260;10.548;2022-08-01T02:09:49;7.53;;;5.63;;
7049;SDS011;22263;52.260;10.548;2022-08-01T02:12:21;8.00;;;5.43;;
7049;SDS011;22263;52.260;10.548;2022-08-01T02:14:54;8.50;;;5.47;;
7049;SDS011;22263;52.260;10.548;2022-08-01T02:17:25;8.23;;;5.45;;
7049;SDS011;22263;52.260;10.548;2022-08-01T02:19:56;5.40;;;4.90;;
7049;SDS011;22263;52.260;10.548;2022-08-01T02:22:29;7.82;;;5.35;;
7049;SDS011;22263;52.260;10.548;2022-08-01T02:25:05;8.13;;;5.40;;
7049;SDS011;22263;52.260;10.548;2022-08-01T02:27:43;8.38;;;5.80;;
7049;SDS011;22263;52.260;10.548;2022-08-01T02:30:20;5.88;;;5.28;;
7049;SDS011;22263;52.260;10.548;2022-08-01T02:32:55;7.50;;;5.63;;
7049;SDS011;22263;52.260;10.548;2022-08-01T02:35:30;6.45;;;5.35;;
7049;SDS011;22263;52.260;10.548;2022-08-01T02:38:23;6.45;;;5.63;;
7049;SDS011;22263;52.260;10.548;2022-08-01T02:40:55;7.95;;;5.35;;
7049;SDS011;22263;52.260;10.548;2022-08-01T02:43:29;7.97;;;5.68;;
7049;SDS011;22263;52.260;10.548;2022-08-01T02:46:04;9.68;;;6.03;;
7049;SDS011;22263;52.260;10.548;2022-08-01T02:48:37;6.57;;;5.20;;
7049;SDS011;22263;52.260;10.548;2022-08-01T02:51:09;10.57;;;5.47;;
7049;SDS011;22263;52.260;10.548;2022-08-01T02:53:40;7.25;;;5.40;;
7049;SDS011;22263;52.260;10.548;2022-08-01T02:56:13;5.60;;;5.00;;
7049;SDS011;22263;52.260;10.548;2022-08-01T02:58:44;8.02;;;4.65;;
7049;SDS011;22263;52.260;10.548;2022-08-01T03:01:18;10.65;;;5.72;;
7049;SDS011;22263;52.260;10.548;2022-08-01T03:03:52;5.40;;;4.90;;
7049;SDS011;22263;52.260;10.548;2022-08-01T03:06:21;5.82;;;5.13;;
7049;SDS011;22263;52.260;10.548;2022-08-01T03:08:53;7.18;;;5.68;;
7049;SDS011;22263;52.260;10.548;2022-08-01T03:11:24;7.53;;;5.60;;
7049;SDS011;22263;52.260;10.548;2022-08-01T03:13:56;6.70;;;5.72;;
7049;SDS011;22263;52.260;10.548;2022-08-01T03:16:33;8.30;;;6.00;;
7049;SDS011;22263;52.260;10.548;2022-08-01T03:19:07;7.95;;;5.35;;
7049;SDS011;22263;52.260;10.548;2022-08-01T03:21:39;6.43;;;5.20;;
7049;SDS011;22263;52.260;10.548;2022-08-01T03:24:12;7.85;;;5.22;;
7049;SDS011;22263;52.260;10.548;2022-08-01T03:26:42;8.88;;;6.07;;
7049;SDS011;22263;52.260;10.548;2022-08-01T03:29:14;6.53;;;5.38;;
7049;SDS011;22263;52.260;10.548;2022-08-01T03:31:48;6.25;;;4.78;;
7049;SDS011;22263;52.260;10.548;2022-08-01T03:34:18;5.10;;;4.60;;
7049;SDS011;22263;52.260;10.548;2022-08-01T03:36:51;5.10;;;4.57;;
7049;SDS011;22263;52.260;10.548;2022-08-01T03:39:25;4.40;;;4.00;;
7049;SDS011;22263;52.260;10.548;2022-08-01T03:42:01;4.35;;;3.40;;
7049;SDS011;22263;52.260;10.548;2022-08-01T03:44:35;4.13;;;3.72;;
7049;SDS011;22263;52.260;10.548;2022-08-01T03:47:10;4.32;;;3.92;;
7049;SDS011;22263;52.260;10.548;2022-08-01T03:49:41;4.13;;;3.55;;
7049;SDS011;22263;52.260;10.548;2022-08-01T03:52:13;3.42;;;3.13;;
7049;SDS011;22263;52.260;10.548;2022-08-01T03:54:46;3.67;;;3.20;;
7049;SDS011;22263;52.260;10.548;2022-08-01T03:57:18;4.43;;;3.20;;
7049;SDS011;22263;52.260;10.548;2022-08-01T04:00:03;3.30;;;3.00;;
7049;SDS011;22263;52.260;10.548;2022-08-01T04:02:38;4.07;;;3.53;;
7049;SDS011;22263;52.260;10.548;2022-08-01T04:05:08;5.18;;;4.22;;
7049;SDS011;22263;52.260;10.548;2022-08-01T04:07:38;5.63;;;3.40;;
7049;SDS011;22263;52.260;10.548;2022-08-01T04:10:10;4.47;;;3.40;;
7049;SDS011;22263;52.260;10.548;2022-08-01T04:12:40;4.38;;;3.97;;
7049;SDS011;22263;52.260;10.548;2022-08-01T04:15:09;4.70;;;4.20;;
7049;SDS011;22263;52.260;10.548;2022-08-01T04:17:42;6.32;;;4.47;;
7049;SDS011;22263;52.260;10.548;2022-08-01T04:20:12;4.53;;;4.10;;
7049;SDS011;22263;52.260;10.548;2022-08-01T04:22:42;5.63;;;4.07;;
7049;SDS011;22263;52.260;10.548;2022-08-01T04:25:12;4.40;;;4.00;;
7049;SDS011;22263;52.260;10.548;2022-08-01T04:27:46;7.18;;;4.72;;
7049;SDS011;22263;52.260;10.548;2022-08-01T04:30:19;5.88;;;4.38;;
7049;SDS011;22263;52.260;10.548;2022-08-01T04:32:54;7.20;;;5.90;;
7049;SDS011;22263;52.260;10.548;2022-08-01T04:35:26;6.47;;;4.80;;
7049;SDS011;22263;52.260;10.548;2022-08-01T04:38:18;5.50;;;4.60;;
7049;SDS011;22263;52.260;10.548;2022-08-01T04:40:50;5.25;;;4.60;;
7049;SDS011;22263;52.260;10.548;2022-08-01T04:43:21;6.63;;;5.00;;
7049;SDS011;22263;52.260;10.548;2022-08-01T04:45:51;5.60;;;4.90;;
7049;SDS011;22263;52.260;10.548;2022-08-01T04:48:23;4.60;;;4.13;;
7049;SDS011;22263;52.260;10.548;2022-08-01T04:50:55;6.30;;;4.60;;
7049;SDS011;22263;52.260;10.548;2022-08-01T04:53:25;5.72;;;4.72;;
7049;SDS011;22263;52.260;10.548;2022-08-01T04:55:54;5.72;;;4.55;;
7049;SDS011;22263;52.260;10.548;2022-08-01T04:58:24;4.65;;;4.15;;
7049;SDS011;22263;52.260;10.548;2022-08-01T05:00:53;5.38;;;4.40;;
7049;SDS011;22263;52.260;10.548;2022-08-01T05:03:25;4.80;;;4.28;;
7049;SDS011;22263;52.260;10.548;2022-08-01T05:05:55;5.30;;;4.80;;
7049;SDS011;22263;52.260;10.548;2022-08-01T05:08:24;6.07;;;4.88;;
7049;SDS011;22263;52.260;10.548;2022-08-01T05:10:54;5.78;;;5.05;;
7049;SDS011;22263;52.260;10.548;2022-08-01T05:13:23;5.95;;;5.22;;
7049;SDS011;22263;52.260;10.548;2022-08-01T05:15:52;5.85;;;4.97;;
7049;SDS011;22263;52.260;10.548;2022-08-01T05:18:22;5.10;;;4.60;;
7049;SDS011;22263;52.260;10.548;2022-08-01T05:20:56;7.38;;;5.30;;
7049;SDS011;22263;52.260;10.548;2022-08-01T05:23:26;5.25;;;4.75;;
7049;SDS011;22263;52.260;10.548;2022-08-01T05:26:08;6.20;;;5.25;;
7049;SDS011;22263;52.260;10.548;2022-08-01T05:28:40;7.60;;;5.93;;
7049;SDS011;22263;52.260;10.548;2022-08-01T05:31:10;6.07;;;5.47;;
7049;SDS011;22263;52.260;10.548;2022-08-01T05:33:40;6.60;;;5.78;;
7049;SDS011;22263;52.260;10.548;2022-08-01T05:36:12;6.63;;;5.82;;
7049;SDS011;22263;52.260;10.548;2022-08-01T05:38:41;7.43;;;6.40;;
7049;SDS011;22263;52.260;10.548;2022-08-01T05:41:11;7.85;;;7.05;;
7049;SDS011;22263;52.260;10.548;2022-08-01T05:43:40;8.63;;;7.18;;
7049;SDS011;22263;52.260;10.548;2022-08-01T05:46:10;10.52;;;8.02;;
7049;SDS011;22263;52.260;10.548;2022-08-01T05:48:39;10.57;;;8.20;;
7049;SDS011;22263;52.260;10.548;2022-08-01T05:51:08;11.10;;;8.98;;
7049;SDS011;22263;52.260;10.548;2022-08-01T05:53:40;11.30;;;8.43;;
7049;SDS011;22263;52.260;10.548;2022-08-01T05:56:10;11.98;;;10.05;;
7049;SDS011;22263;52.260;10.548;2022-08-01T05:58:39;11.75;;;8.70;;
7049;SDS011;22263;52.260;10.548;2022-08-01T06:01:08;12.82;;;10.18;;
7049;SDS011;22263;52.260;10.548;2022-08-01T06:03:38;12.60;;;8.88;;
7049;SDS011;22263;52.260;10.548;2022-08-01T06:06:07;11.18;;;8.95;;
7049;SDS011;22263;52.260;10.548;2022-08-01T06:08:37;10.90;;;9.38;;
7049;SDS011;22263;52.260;10.548;2022-08-01T06:11:09;10.60;;;8.93;;
7049;SDS011;22263;52.260;10.548;2022-08-01T06:13:38;14.57;;;9.30;;
7049;SDS011;22263;52.260;10.548;2022-08-01T06:16:13;9.68;;;8.68;;
7049;SDS011;22263;52.260;10.548;2022-08-01T06:18:43;11.00;;;8.02;;
7049;SDS011;22263;52.260;10.548;2022-08-01T06:21:12;11.27;;;8.27;;
7049;SDS011;22263;52.260;10.548;2022-08-01T06:23:42;10.65;;;8.00;;
7049;SDS011;22263;52.260;10.548;2022-08-01T06:26:16;10.65;;;8.00;;
7049;SDS011;22263;52.260;10.548;2022-08-01T06:28:46;8.80;;;6.88;;
7049;SDS011;22263;52.260;10.548;2022-08-01T06:31:15;9.35;;;7.40;;
7049;SDS011;22263;52.260;10.548;2022-08-01T06:33:45;8.23;;;6.63;;
7049;SDS011;22263;52.260;10.548;2022-08-01T06:36:14;7.22;;;5.75;;
7049;SDS011;22263;52.260;10.548;2022-08-01T06:38:44;6.53;;;5.15;;
7049;SDS011;22263;52.260;10.548;2022-08-01T06:41:16;6.43;;;5.32;;
7049;SDS011;22263;52.260;10.548;2022-08-01T06:43:45;5.45;;;4.65;;
7049;SDS011;22263;52.260;10.548;2022-08-01T06:46:14;5.68;;;4.75;;
7049;SDS011;22263;52.260;10.548;2022-08-01T06:48:44;5.03;;;4.53;;
7049;SDS011;22263;52.260;10.548;2022-08-01T06:51:13;4.95;;;4.03;;
7049;SDS011;22263;52.260;10.548;2022-08-01T06:53:46;5.25;;;3.85;;
7049;SDS011;22263;52.260;10.548;2022-08-01T06:56:18;4.75;;;3.60;;
7049;SDS011;22263;52.260;10.548;2022-08-01T06:58:48;4.43;;;3.40;;
7049;SDS011;22263;52.260;10.548;2022-08-01T07:01:18;4.00;;;3.30;;
7049;SDS011;22263;52.260;10.548;2022-08-01T07:03:47;3.65;;;3.30;;
7049;SDS011;22263;52.260;10.548;2022-08-01T07:06:20;4.13;;;3.72;;
7049;SDS011;22263;52.260;10.548;2022-08-01T07:08:51;4.55;;;3.70;;
7049;SDS011;22263;52.260;10.548;2022-08-01T07:11:23;4.20;;;3.00;;
7049;SDS011;22263;52.260;10.548;2022-08-01T07:13:53;5.63;;;3.13;;
7049;SDS011;22263;52.260;10.548;2022-08-01T07:16:23;3.58;;;2.75;;
7049;SDS011;22263;52.260;10.548;2022-08-01T07:18:52;2.90;;;2.30;;
7049;SDS011;22263;52.260;10.548;2022-08-01T07:21:22;2.53;;;2.33;;
7049;SDS011;22263;52.260;10.548;2022-08-01T07:24:06;2.80;;;2.50;;
7049;SDS011;22263;52.260;10.548;2022-08-01T07:26:42;2.97;;;2.28;;
7049;SDS011;22263;52.260;10.548;2022-08-01T07:29:19;3.80;;;2.35;;
7049;SDS011;22263;52.260;10.548;2022-08-01T07:31:48;2.35;;;2.15;;
7049;SDS011;22263;52.260;10.548;2022-08-01T07:34:19;2.30;;;2.10;;
7049;SDS011;22263;52.260;10.548;2022-08-01T07:36:48;2.08;;;1.92;;
7049;SDS011;22263;52.260;10.548;2022-08-01T07:39:18;4.40;;;1.80;;
7049;SDS011;22263;52.260;10.548;2022-08-01T07:41:50;2.30;;;2.10;;
7049;SDS011;22263;52.260;10.548;2022-08-01T07:44:33;2.13;;;1.98;;
7049;SDS011;22263;52.260;10.548;2022-08-01T07:47:03;2.45;;;2.25;;
7049;SDS011;22263;52.260;10.548;2022-08-01T07:49:32;2.47;;;2.20;;
7049;SDS011;22263;52.260;10.548;2022-08-01T07:52:06;2.53;;;2.08;;
7049;SDS011;22263;52.260;10.548;2022-08-01T07:54:35;2.70;;;2.50;;
7049;SDS011;22263;52.260;10.548;2022-08-01T07:57:07;2.97;;;2.25;;
7049;SDS011;22263;52.260;10.548;2022-08-01T07:59:37;3.33;;;2.70;;
7049;SDS011;22263;52.260;10.548;2022-08-01T08:02:06;3.85;;;2.08;;
7049;SDS011;22263;52.260;10.548;2022-08-01T08:04:36;3.15;;;2.53;;
7049;SDS011;22263;52.260;10.548;2022-08-01T08:07:10;4.07;;;2.55;;
7049;SDS011;22263;52.260;10.548;2022-08-01T08:09:40;2.33;;;2.13;;
7049;SDS011;22263;52.260;10.548;2022-08-01T08:12:19;2.47;;;2.28;;
7049;SDS011;22263;52.260;10.548;2022-08-01T08:14:53;3.08;;;2.38;;
7049;SDS011;22263;52.260;10.548;2022-08-01T08:17:24;2.55;;;2.15;;
7049;SDS011;22263;52.260;10.548;2022-08-01T08:20:01;1.95;;;1.85;;
7049;SDS011;22263;52.260;10.548;2022-08-01T08:22:35;2.10;;;1.90;;
7049;SDS011;22263;52.260;10.548;2022-08-01T08:25:05;1.95;;;1.80;;
7049;SDS011;22263;52.260;10.548;2022-08-01T08:27:40;2.08;;;1.80;;
7049;SDS011;22263;52.260;10.548;2022-08-01T08:30:09;2.10;;;1.85;;
7049;SDS011;22263;52.260;10.548;2022-08-01T08:32:39;2.08;;;1.85;;
7049;SDS011;22263;52.260;10.548;2022-08-01T08:35:09;4.18;;;3.17;;
7049;SDS011;22263;52.260;10.548;2022-08-01T08:37:48;1.65;;;1.55;;
7049;SDS011;22263;52.260;10.548;2022-08-01T08:40:21;2.40;;;1.58;;
7049;SDS011;22263;52.260;10.548;2022-08-01T08:43:00;3.28;;;2.92;;
7049;SDS011;22263;52.260;10.548;2022-08-01T08:45:32;1.88;;;1.52;;
7049;SDS011;22263;52.260;10.548;2022-08-01T08:48:22;2.03;;;1.83;;
7049;SDS011;22263;52.260;10.548;2022-08-01T08:50:53;1.52;;;1.42;;
7049;SDS011;22263;52.260;10.548;2022-08-01T08:53:23;3.90;;;2.65;;
7049;SDS011;22263;52.260;10.548;2022-08-01T08:56:00;2.00;;;1.73;;
7049;SDS011;22263;52.260;10.548;2022-08-01T08:58:33;2.40;;;1.50;;
7049;SDS011;22263;52.260;10.548;2022-08-01T09:01:05;2.05;;;1.27;;
7049;SDS011;22263;52.260;10.548;2022-08-01T09:03:36;1.20;;;1.10;;
7049;SDS011;22263;52.260;10.548;2022-08-01T09:06:06;1.65;;;1.40;;
7049;SDS011;22263;52.260;10.548;2022-08-01T09:08:35;1.52;;;1.38;;
7049;SDS011;22263;52.260;10.548;2022-08-01T09:11:05;1.83;;;1.45;;
7049;SDS011;22263;52.260;10.548;2022-08-01T09:13:38;2.33;;;2.13;;
7049;SDS011;22263;52.260;10.548;2022-08-01T09:16:15;2.17;;;1.80;;
7049;SDS011;22263;52.260;10.548;2022-08-01T09:18:46;3.92;;;2.28;;
7049;SDS011;22263;52.260;10.548;2022-08-01T09:21:19;3.15;;;2.85;;
7049;SDS011;22263;52.260;10.548;2022-08-01T09:23:54;2.63;;;2.42;;
7049;SDS011;22263;52.260;10.548;2022-08-01T09:26:28;2.83;;;2.53;;
7049;SDS011;22263;52.260;10.548;2022-08-01T09:29:03;3.63;;;2.47;;
7049;SDS011;22263;52.260;10.548;2022-08-01T09:31:39;2.63;;;2.42;;
7049;SDS011;22263;52.260;10.548;2022-08-01T09:34:13;4.75;;;2.30;;
7049;SDS011;22263;52.260;10.548;2022-08-01T09:36:46;2.97;;;2.00;;
7049;SDS011;22263;52.260;10.548;2022-08-01T09:39:20;2.22;;;2.03;;
7049;SDS011;22263;52.260;10.548;2022-08-01T09:41:51;3.53;;;2.10;;
7049;SDS011;22263;52.260;10.548;2022-08-01T09:47:20;2.55;;;1.80;;
7049;SDS011;22263;52.260;10.548;2022-08-01T09:49:52;2.00;;;1.65;;
7049;SDS011;22263;52.260;10.548;2022-08-01T09:52:25;1.63;;;1.30;;
7049;SDS011;22263;52.260;10.548;2022-08-01T09:54:59;2.40;;;1.10;;
7049;SDS011;22263;52.260;10.548;2022-08-01T09:57:30;1.60;;;1.50;;
7049;SDS011;22263;52.260;10.548;2022-08-01T10:00:03;1.58;;;1.48;;
7049;SDS011;22263;52.260;10.548;2022-08-01T10:02:36;3.55;;;1.48;;
7049;SDS011;22263;52.260;10.548;2022-08-01T10:05:07;2.63;;;1.40;;
7049;SDS011;22263;52.260;10.548;2022-08-01T10:07:56;2.00;;;1.45;;
7049;SDS011;22263;52.260;10.548;2022-08-01T10:10:26;3.83;;;1.30;;
7049;SDS011;22263;52.260;10.548;2022-08-01T10:12:58;1.65;;;1.50;;
7049;SDS011;22263;52.260;10.548;2022-08-01T10:15:31;1.50;;;1.40;;
7049;SDS011;22263;52.260;10.548;2022-08-01T10:18:03;1.50;;;1.40;;
7049;SDS011;22263;52.260;10.548;2022-08-01T10:20:51;2.15;;;1.85;;
7049;SDS011;22263;52.260;10.548;2022-08-01T10:23:23;1.70;;;1.60;;
7049;SDS011;22263;52.260;10.548;2022-08-01T10:26:06;2.15;;;1.63;;
7049;SDS011;22263;52.260;10.548;2022-08-01T10:28:37;2.28;;;1.77;;
7049;SDS011;22263;52.260;10.548;2022-08-01T10:31:12;2.63;;;1.40;;
7049;SDS011;22263;52.260;10.548;2022-08-01T10:33:42;1.90;;;1.80;;
7049;SDS011;22263;52.260;10.548;2022-08-01T10:36:19;1.52;;;1.42;;
7049;SDS011;22263;52.260;10.548;2022-08-01T10:38:51;1.70;;;1.60;;
7049;SDS011;22263;52.260;10.548;2022-08-01T10:41:21;2.75;;;1.70;;
7049;SDS011;22263;52.260;10.548;2022-08-01T10:43:52;1.75;;;1.45;;
7049;SDS011;22263;52.260;10.548;2022-08-01T10:46:25;1.83;;;1.70;;
7049;SDS011;22263;52.260;10.548;2022-08-01T10:48:59;2.80;;;1.70;;
7049;SDS011;22263;52.260;10.548;2022-08-01T10:51:34;1.33;;;1.23;;
7049;SDS011;22263;52.260;10.548;2022-08-01T10:54:19;2.58;;;1.60;;
7049;SDS011;22263;52.260;10.548;2022-08-01T10:56:53;2.30;;;1.80;;
7049;SDS011;22263;52.260;10.548;2022-08-01T10:59:29;1.70;;;1.60;;
7049;SDS011;22263;52.260;10.548;2022-08-01T11:02:29;1.90;;;1.70;;
7049;SDS011;22263;52.260;10.548;2022-08-01T11:05:01;2.00;;;1.80;;
7049;SDS011;22263;52.260;10.548;2022-08-01T11:07:37;2.05;;;1.83;;
7049;SDS011;22263;52.260;10.548;2022-08-01T11:10:16;3.05;;;1.98;;
7049;SDS011;22263;52.260;10.548;2022-08-01T11:12:51;1.88;;;1.77;;
7049;SDS011;22263;52.260;10.548;2022-08-01T11:15:22;1.70;;;1.60;;
7049;SDS011;22263;52.260;10.548;2022-08-01T11:18:00;1.52;;;1.42;;
7049;SDS011;22263;52.260;10.548;2022-08-01T11:20:32;1.38;;;1.27;;
7049;SDS011;22263;52.260;10.548;2022-08-01T11:23:16;1.42;;;1.30;;
7049;SDS011;22263;52.260;10.548;2022-08-01T11:28:36;1.67;;;1.30;;
7049;SDS011;22263;52.260;10.548;2022-08-01T11:31:28;1.60;;;1.45;;
7049;SDS011;22263;52.260;10.548;2022-08-01T11:34:05;1.40;;;1.30;;
7049;SDS011;22263;52.260;10.548;2022-08-01T11:36:35;2.45;;;1.30;;
7049;SDS011;22263;52.260;10.548;2022-08-01T11:39:24;3.13;;;1.40;;
7049;SDS011;22263;52.260;10.548;2022-08-01T11:41:55;2.58;;;1.67;;
7049;SDS011;22263;52.260;10.548;2022-08-01T11:44:48;1.77;;;1.40;;
7049;SDS011;22263;52.260;10.548;2022-08-01T11:47:18;2.55;;;1.77;;
7049;SDS011;22263;52.260;10.548;2022-08-01T11:50:10;2.70;;;1.50;;
7049;SDS011;22263;52.260;10.548;2022-08-01T11:52:59;2.15;;;1.33;;
7049;SDS011;22263;52.260;10.548;2022-08-01T11:55:30;2.05;;;1.60;;
7049;SDS011;22263;52.260;10.548;2022-08-01T11:58:01;2.35;;;1.60;;
7049;SDS011;22263;52.260;10.548;2022-08-01T12:00:34;2.03;;;1.35;;
7049;SDS011;22263;52.260;10.548;2022-08-01T12:03:09;1.42;;;1.30;;
7049;SDS011;22263;52.260;10.548;2022-08-01T12:06:01;3.00;;;1.40;;
7049;SDS011;22263;52.260;10.548;2022-08-01T12:08:31;1.85;;;1.65;;
7049;SDS011;22263;52.260;10.548;2022-08-01T12:11:03;2.10;;;1.35;;
7049;SDS011;22263;52.260;10.548;2022-08-01T12:13:39;2.90;;;1.50;;
7049;SDS011;22263;52.260;10.548;2022-08-01T12:16:11;2.50;;;1.30;;
7049;SDS011;22263;52.260;10.548;2022-08-01T12:18:41;1.80;;;1.38;;
7049;SDS011;22263;52.260;10.548;2022-08-01T12:21:13;2.45;;;1.40;;
7049;SDS011;22263;52.260;10.548;2022-08-01T12:23:43;1.60;;;1.35;;
7049;SDS011;22263;52.260;10.548;2022-08-01T12:26:12;2.13;;;1.30;;
7049;SDS011;22263;52.260;10.548;2022-08-01T12:28:54;1.70;;;1.60;;
7049;SDS011;22263;52.260;10.548;2022-08-01T12:31:30;3.22;;;1.77;;
7049;SDS011;22263;52.260;10.548;2022-08-01T12:36:57;4.65;;;3.05;;
7049;SDS011;22263;52.260;10.548;2022-08-01T12:39:29;1.83;;;1.50;;
7049;SDS011;22263;52.260;10.548;2022-08-01T12:42:06;3.13;;;1.90;;
7049;SDS011;22263;52.260;10.548;2022-08-01T12:44:37;4.75;;;1.85;;
7049;SDS011;22263;52.260;10.548;2022-08-01T12:47:07;2.95;;;1.73;;
7049;SDS011;22263;52.260;10.548;2022-08-01T12:49:37;5.45;;;2.03;;
7049;SDS011;22263;52.260;10.548;2022-08-01T12:52:11;2.97;;;1.80;;
7049;SDS011;22263;52.260;10.548;2022-08-01T12:57:35;4.63;;;1.70;;
7049;SDS011;22263;52.260;10.548;2022-08-01T13:00:10;4.07;;;1.48;;
7049;SDS011;22263;52.260;10.548;2022-08-01T13:02:43;3.08;;;1.70;;
7049;SDS011;22263;52.260;10.548;2022-08-01T13:05:13;2.25;;;1.50;;
7049;SDS011;22263;52.260;10.548;2022-08-01T13:07:47;3.10;;;1.40;;
7049;SDS011;22263;52.260;10.548;2022-08-01T13:10:25;2.80;;;1.30;;
7049;SDS011;22263;52.260;10.548;2022-08-01T13:12:56;4.90;;;1.70;;
7049;SDS011;22263;52.260;10.548;2022-08-01T13:15:28;5.13;;;1.70;;
7049;SDS011;22263;52.260;10.548;2022-08-01T13:21:06;2.45;;;1.63;;
7049;SDS011;22263;52.260;10.548;2022-08-01T13:23:40;3.03;;;1.65;;
7049;SDS011;22263;52.260;10.548;2022-08-01T13:26:42;2.58;;;1.60;;
7049;SDS011;22263;52.260;10.548;2022-08-01T13:29:13;2.50;;;1.55;;
7049;SDS011;22263;52.260;10.548;2022-08-01T13:31:43;4.93;;;1.60;;
7049;SDS011;22263;52.260;10.548;2022-08-01T13:34:14;2.38;;;1.48;;
7049;SDS011;22263;52.260;10.548;2022-08-01T13:36:44;4.70;;;1.70;;
7049;SDS011;22263;52.260;10.548;2022-08-01T13:39:17;2.50;;;1.55;;
7049;SDS011;22263;52.260;10.548;2022-08-01T13:41:59;2.33;;;1.48;;
7049;SDS011;22263;52.260;10.548;2022-08-01T13:44:29;2.47;;;1.65;;
7049;SDS011;22263;52.260;10.548;2022-08-01T13:46:58;2.63;;;1.60;;
7049;SDS011;22263;52.260;10.548;2022-08-01T13:49:40;6.15;;;1.60;;
7049;SDS011;22263;52.260;10.548;2022-08-01T13:52:09;2.75;;;1.50;;
7049;SDS011;22263;52.260;10.548;2022-08-01T13:54:41;2.35;;;1.50;;
7049;SDS011;22263;52.260;10.548;2022-08-01T13:57:11;3.25;;;1.90;;
7049;SDS011;22263;52.260;10.548;2022-08-01T13:59:42;3.35;;;1.58;;
7049;SDS011;22263;52.260;10.548;2022-08-01T14:02:12;2.53;;;1.60;;
7049;SDS011;22263;52.260;10.548;2022-08-01T14:04:41;3.22;;;1.40;;
7049;SDS011;22263;52.260;10.548;2022-08-01T14:07:10;4.70;;;1.95;;
7049;SDS011;22263;52.260;10.548;2022-08-01T14:09:43;2.55;;;1.35;;
7049;SDS011;22263;52.260;10.548;2022-08-01T14:12:32;2.65;;;1.48;;
7049;SDS011;22263;52.260;10.548;2022-08-01T14:15:02;1.35;;;1.20;;
7049;SDS011;22263;52.260;10.548;2022-08-01T14:17:32;3.60;;;1.60;;
7049;SDS011;22263;52.260;10.548;2022-08-01T14:20:03;2.00;;;1.58;;
7049;SDS011;22263;52.260;10.548;2022-08-01T14:22:33;4.30;;;1.80;;
7049;SDS011;22263;52.260;10.548;2022-08-01T14:25:06;2.40;;;1.75;;
7049;SDS011;22263;52.260;10.548;2022-08-01T14:27:49;3.03;;;1.80;;
7049;SDS011;22263;52.260;10.548;2022-08-01T14:30:18;5.20;;;1.90;;
7049;SDS011;22263;52.260;10.548;2022-08-01T14:32:48;2.72;;;2.00;;
7049;SDS011;22263;52.260;10.548;2022-08-01T14:35:17;3.33;;;1.77;;
7049;SDS011;22263;52.260;10.548;2022-08-01T14:37:46;4.28;;;1.60;;
7049;SDS011;22263;52.260;10.548;2022-08-01T14:40:25;2.78;;;1.52;;
7049;SDS011;22263;52.260;10.548;2022-08-01T14:42:55;2.53;;;1.80;;
7049;SDS011;22263;52.260;10.548;2022-08-01T14:45:24;3.30;;;2.08;;
7049;SDS011;22263;52.260;10.548;2022-08-01T14:47:53;4.07;;;1.80;;
7049;SDS011;22263;52.260;10.548;2022-08-01T14:50:23;2.67;;;1.90;;
7049;SDS011;22263;52.260;10.548;2022-08-01T14:52:54;4.85;;;1.70;;
7049;SDS011;22263;52.260;10.548;2022-08-01T14:55:26;4.45;;;1.85;;
7049;SDS011;22263;52.260;10.548;2022-08-01T14:57:55;3.83;;;1.90;;
7049;SDS011;22263;52.260;10.548;2022-08-01T15:00:25;4.65;;;2.00;;
7049;SDS011;22263;52.260;10.548;2022-08-01T15:02:55;2.08;;;1.80;;
7049;SDS011;22263;52.260;10.548;2022-08-01T15:05:25;3.38;;;1.60;;
7049;SDS011;22263;52.260;10.548;2022-08-01T15:07:56;5.18;;;2.67;;
7049;SDS011;22263;52.260;10.548;2022-08-01T15:10:28;4.28;;;1.85;;
7049;SDS011;22263;52.260;10.548;2022-08-01T15:12:58;2.97;;;1.98;;
7049;SDS011;22263;52.260;10.548;2022-08-01T15:15:28;4.45;;;1.77;;
7049;SDS011;22263;52.260;10.548;2022-08-01T15:17:57;3.22;;;2.08;;
7049;SDS011;22263;52.260;10.548;2022-08-01T15:20:27;3.10;;;1.90;;
7049;SDS011;22263;52.260;10.548;2022-08-01T15:22:56;3.13;;;1.80;;
7049;SDS011;22263;52.260;10.548;2022-08-01T15:25:25;2.67;;;1.95;;
7049;SDS011;22263;52.260;10.548;2022-08-01T15:28:07;5.80;;;2.13;;
7049;SDS011;22263;52.260;10.548;2022-08-01T15:30:37;6.50;;;1.83;;
7049;SDS011;22263;52.260;10.548;2022-08-01T15:33:08;2.65;;;1.90;;
7049;SDS011;22263;52.260;10.548;2022-08-01T15:35:38;5.72;;;2.00;;
7049;SDS011;22263;52.260;10.548;2022-08-01T15:38:08;5.57;;;2.10;;